sensor_id;sensor_type;location;lat;lon;timestamp;temperature;humidity
7000;DHT22;3540;53.242;10.408;2023-06-26T00:00:19;20.00;99.90
7000;DHT22;3540;53.242;10.408;2023-06-26T00:02:45;20.00;99.90
7000;DHT22;3540;53.242;10.408;2023-06-26T00:05:11;20.00;99.90
7000;DHT22;3540;53.242;10.408;2023-06-26T00:07:37;19.90;99.90
7000;DHT22;3540;53.242;10.408;2023-06-26T00:10:03;19.90;99.90
7000;DHT22;3540;53.242;10.408;2023-06-26T00:12:29;19.90;99.90
7000;DHT22;3540;53.242;10.408;2023-06-26T00:14:55;19.90;99.90
7000;DHT22;3540;53.242;10.408;2023-06-26T00:17:21;19.80;99.90
7000;DHT22;3540;53.242;10.408;2023-06-26T00:19:47;19.80;99.90
7000;DHT22;3540;53.242;10.408;2023-06-26T00:22:13;19.80;99.90
7000;DHT22;3540;53.242;10.408;2023-06-26T00:24:38;19.80;99.90
7000;DHT22;3540;53.242;10.408;2023-06-26T00:27:04;19.80;99.90
7000;DHT22;3540;53.242;10.408;2023-06-26T00:29:30;19.70;99.90
7000;DHT22;3540;53.242;10.408;2023-06-26T00:31:55;19.70;99.90
7000;DHT22;3540;53.242;10.408;2023-06-26T00:34:21;19.70;99.90
7000;DHT22;3540;53.242;10.408;2023-06-26T00:36:47;19.60;99.90
7000;DHT22;3540;53.242;10.408;2023-06-26T00:39:12;19.60;99.90
7000;DHT22;3540;53.242;10.408;2023-06-26T00:41:39;19.60;99.90
7000;DHT22;3540;53.242;10.408;2023-06-26T00:44:05;19.50;99.90
7000;DHT22;3540;53.242;10.408;2023-06-26T00:46:31;19.50;99.90
7000;DHT22;3540;53.242;10.408;2023-06-26T00:48:59;19.50;99.90
7000;DHT22;3540;53.242;10.408;2023-06-26T00:51:30;19.50;99.90
7000;DHT22;3540;53.242;10.408;2023-06-26T00:53:56;19.50;99.90
7000;DHT22;3540;53.242;10.408;2023-06-26T00:56:23;19.50;99.90
7000;DHT22;3540;53.242;10.408;2023-06-26T00:58:48;19.50;99.90
7000;DHT22;3540;53.242;10.408;2023-06-26T01:01:15;19.40;99.90
7000;DHT22;3540;53.242;10.408;2023-06-26T01:03:44;19.40;99.90
7000;DHT22;3540;53.242;10.408;2023-06-26T01:06:13;19.40;99.90
7000;DHT22;3540;53.242;10.408;2023-06-26T01:08:41;19.40;99.90
7000;DHT22;3540;53.242;10.408;2023-06-26T01:11:08;19.30;99.90
7000;DHT22;3540;53.242;10.408;2023-06-26T01:13:34;19.30;99.90
7000;DHT22;3540;53.242;10.408;2023-06-26T01:16:02;19.20;99.90
7000;DHT22;3540;53.242;10.408;2023-06-26T01:18:31;19.20;99.90
7000;DHT22;3540;53.242;10.408;2023-06-26T01:20:58;19.10;99.90
7000;DHT22;3540;53.242;10.408;2023-06-26T01:23:35;19.10;99.90
7000;DHT22;3540;53.242;10.408;2023-06-26T01:26:22;19.10;99.90
7000;DHT22;3540;53.242;10.408;2023-06-26T01:28:50;19.10;99.90
7000;DHT22;3540;53.242;10.408;2023-06-26T01:31:17;19.00;99.90
7000;DHT22;3540;53.242;10.408;2023-06-26T01:33:43;19.00;99.90
7000;DHT22;3540;53.242;10.408;2023-06-26T01:36:09;19.00;99.90
7000;DHT22;3540;53.242;10.408;2023-06-26T01:38:35;19.00;99.90
7000;DHT22;3540;53.242;10.408;2023-06-26T01:41:02;19.00;99.90
7000;DHT22;3540;53.242;10.408;2023-06-26T01:46:01;18.90;99.90
7000;DHT22;3540;53.242;10.408;2023-06-26T01:48:45;18.90;99.90
7000;DHT22;3540;53.242;10.408;2023-06-26T01:51:13;18.90;99.90
7000;DHT22;3540;53.242;10.408;2023-06-26T01:53:44;18.90;99.90
7000;DHT22;3540;53.242;10.408;2023-06-26T01:56:14;18.90;99.90
7000;DHT22;3540;53.242;10.408;2023-06-26T01:58:43;18.80;99.90
7000;DHT22;3540;53.242;10.408;2023-06-26T02:01:11;18.80;99.90
7000;DHT22;3540;53.242;10.408;2023-06-26T02:03:37;18.80;99.90
7000;DHT22;3540;53.242;10.408;2023-06-26T02:06:02;18.80;99.90
7000;DHT22;3540;53.242;10.408;2023-06-26T02:08:28;18.80;99.90
7000;DHT22;3540;53.242;10.408;2023-06-26T02:10:54;18.80;99.90
7000;DHT22;3540;53.242;10.408;2023-06-26T02:13:19;18.80;99.90
7000;DHT22;3540;53.242;10.408;2023-06-26T02:15:45;18.80;99.90
7000;DHT22;3540;53.242;10.408;2023-06-26T02:18:10;18.80;99.90
7000;DHT22;3540;53.242;10.408;2023-06-26T02:20:36;18.70;99.90
7000;DHT22;3540;53.242;10.408;2023-06-26T02:23:02;18.70;99.90
7000;DHT22;3540;53.242;10.408;2023-06-26T02:25:27;18.70;99.90
7000;DHT22;3540;53.242;10.408;2023-06-26T02:27:53;18.70;99.90
7000;DHT22;3540;53.242;10.408;2023-06-26T02:30:19;18.60;99.90
7000;DHT22;3540;53.242;10.408;2023-06-26T02:32:44;18.60;99.90
7000;DHT22;3540;53.242;10.408;2023-06-26T02:35:10;18.60;99.90
7000;DHT22;3540;53.242;10.408;2023-06-26T02:37:36;18.60;99.90
7000;DHT22;3540;53.242;10.408;2023-06-26T02:40:02;18.60;99.90
7000;DHT22;3540;53.242;10.408;2023-06-26T02:42:31;18.60;99.90
7000;DHT22;3540;53.242;10.408;2023-06-26T02:44:57;18.50;99.90
7000;DHT22;3540;53.242;10.408;2023-06-26T02:47:22;18.50;99.90
7000;DHT22;3540;53.242;10.408;2023-06-26T02:49:48;18.60;99.90
7000;DHT22;3540;53.242;10.408;2023-06-26T02:52:13;18.60;99.90
7000;DHT22;3540;53.242;10.408;2023-06-26T02:54:39;18.50;99.90
7000;DHT22;3540;53.242;10.408;2023-06-26T02:57:05;18.60;99.90
7000;DHT22;3540;53.242;10.408;2023-06-26T02:59:30;18.60;99.90
7000;DHT22;3540;53.242;10.408;2023-06-26T03:01:56;18.60;99.90
7000;DHT22;3540;53.242;10.408;2023-06-26T03:04:21;18.60;99.90
7000;DHT22;3540;53.242;10.408;2023-06-26T03:06:47;18.60;99.90
7000;DHT22;3540;53.242;10.408;2023-06-26T03:09:13;18.60;99.90
7000;DHT22;3540;53.242;10.408;2023-06-26T03:11:38;18.60;99.90
7000;DHT22;3540;53.242;10.408;2023-06-26T03:14:04;18.60;99.90
7000;DHT22;3540;53.242;10.408;2023-06-26T03:16:30;18.60;99.90
7000;DHT22;3540;53.242;10.408;2023-06-26T03:18:55;18.60;99.90
7000;DHT22;3540;53.242;10.408;2023-06-26T03:21:21;18.60;99.90
7000;DHT22;3540;53.242;10.408;2023-06-26T03:23:46;18.60;99.90
7000;DHT22;3540;53.242;10.408;2023-06-26T03:26:12;18.60;99.90
7000;DHT22;3540;53.242;10.408;2023-06-26T03:28:40;18.60;99.90
7000;DHT22;3540;53.242;10.408;2023-06-26T03:31:06;18.60;99.90
7000;DHT22;3540;53.242;10.408;2023-06-26T03:33:31;18.60;99.90
7000;DHT22;3540;53.242;10.408;2023-06-26T03:35:57;18.70;99.90
7000;DHT22;3540;53.242;10.408;2023-06-26T03:38:24;18.60;99.90
7000;DHT22;3540;53.242;10.408;2023-06-26T03:40:51;18.70;99.90
7000;DHT22;3540;53.242;10.408;2023-06-26T03:43:17;18.70;99.90
7000;DHT22;3540;53.242;10.408;2023-06-26T03:45:43;18.70;99.90
7000;DHT22;3540;53.242;10.408;2023-06-26T03:48:08;18.70;99.90
7000;DHT22;3540;53.242;10.408;2023-06-26T03:50:34;18.80;99.90
7000;DHT22;3540;53.242;10.408;2023-06-26T03:53:00;18.80;99.90
7000;DHT22;3540;53.242;10.408;2023-06-26T03:55:25;18.80;99.90
7000;DHT22;3540;53.242;10.408;2023-06-26T03:57:51;18.80;99.90
7000;DHT22;3540;53.242;10.408;2023-06-26T04:00:17;18.90;99.90
7000;DHT22;3540;53.242;10.408;2023-06-26T04:02:43;18.90;99.90
7000;DHT22;3540;53.242;10.408;2023-06-26T04:05:08;18.90;99.90
7000;DHT22;3540;53.242;10.408;2023-06-26T04:07:34;18.90;99.90
7000;DHT22;3540;53.242;10.408;2023-06-26T04:10:01;19.00;99.90
7000;DHT22;3540;53.242;10.408;2023-06-26T04:12:27;19.00;99.90
7000;DHT22;3540;53.242;10.408;2023-06-26T04:14:52;19.10;99.90
7000;DHT22;3540;53.242;10.408;2023-06-26T04:17:18;19.10;99.90
7000;DHT22;3540;53.242;10.408;2023-06-26T04:19:44;19.20;99.90
7000;DHT22;3540;53.242;10.408;2023-06-26T04:22:09;19.20;99.90
7000;DHT22;3540;53.242;10.408;2023-06-26T04:24:35;19.30;99.90
7000;DHT22;3540;53.242;10.408;2023-06-26T04:27:00;19.30;99.90
7000;DHT22;3540;53.242;10.408;2023-06-26T04:29:26;19.40;99.90
7000;DHT22;3540;53.242;10.408;2023-06-26T04:31:53;19.40;99.90
7000;DHT22;3540;53.242;10.408;2023-06-26T04:34:27;19.50;99.90
7000;DHT22;3540;53.242;10.408;2023-06-26T04:36:53;19.50;99.90
7000;DHT22;3540;53.242;10.408;2023-06-26T04:39:19;19.60;99.90
7000;DHT22;3540;53.242;10.408;2023-06-26T04:41:45;19.60;99.90
7000;DHT22;3540;53.242;10.408;2023-06-26T04:44:11;19.70;99.90
7000;DHT22;3540;53.242;10.408;2023-06-26T04:46:37;19.70;99.90
7000;DHT22;3540;53.242;10.408;2023-06-26T04:49:10;19.80;99.90
7000;DHT22;3540;53.242;10.408;2023-06-26T04:51:36;19.90;99.90
7000;DHT22;3540;53.242;10.408;2023-06-26T04:54:10;20.00;99.90
7000;DHT22;3540;53.242;10.408;2023-06-26T04:56:36;20.10;99.90
7000;DHT22;3540;53.242;10.408;2023-06-26T04:59:02;20.10;99.90
7000;DHT22;3540;53.242;10.408;2023-06-26T05:01:28;20.20;99.90
7000;DHT22;3540;53.242;10.408;2023-06-26T05:03:56;20.30;99.90
7000;DHT22;3540;53.242;10.408;2023-06-26T05:06:22;20.30;99.90
7000;DHT22;3540;53.242;10.408;2023-06-26T05:08:48;20.40;99.90
7000;DHT22;3540;53.242;10.408;2023-06-26T05:11:13;20.50;99.90
7000;DHT22;3540;53.242;10.408;2023-06-26T05:13:39;20.50;99.90
7000;DHT22;3540;53.242;10.408;2023-06-26T05:16:05;20.60;99.90
7000;DHT22;3540;53.242;10.408;2023-06-26T05:18:33;20.70;99.90
7000;DHT22;3540;53.242;10.408;2023-06-26T05:20:59;20.80;99.90
7000;DHT22;3540;53.242;10.408;2023-06-26T05:23:25;20.90;99.90
7000;DHT22;3540;53.242;10.408;2023-06-26T05:25:52;20.90;99.90
7000;DHT22;3540;53.242;10.408;2023-06-26T05:28:18;21.00;99.90
7000;DHT22;3540;53.242;10.408;2023-06-26T05:30:44;21.10;99.90
7000;DHT22;3540;53.242;10.408;2023-06-26T05:33:11;21.20;99.90
7000;DHT22;3540;53.242;10.408;2023-06-26T05:35:38;21.30;99.90
7000;DHT22;3540;53.242;10.408;2023-06-26T05:38:04;21.40;99.90
7000;DHT22;3540;53.242;10.408;2023-06-26T05:40:31;21.40;99.90
7000;DHT22;3540;53.242;10.408;2023-06-26T05:42:56;21.50;99.90
7000;DHT22;3540;53.242;10.408;2023-06-26T05:45:22;21.50;99.90
7000;DHT22;3540;53.242;10.408;2023-06-26T05:47:48;21.70;99.90
7000;DHT22;3540;53.242;10.408;2023-06-26T05:50:17;21.70;99.90
7000;DHT22;3540;53.242;10.408;2023-06-26T05:52:43;21.80;99.90
7000;DHT22;3540;53.242;10.408;2023-06-26T05:55:10;21.90;99.90
7000;DHT22;3540;53.242;10.408;2023-06-26T05:57:37;22.00;99.90
7000;DHT22;3540;53.242;10.408;2023-06-26T06:00:03;22.10;99.90
7000;DHT22;3540;53.242;10.408;2023-06-26T06:02:34;22.20;99.90
7000;DHT22;3540;53.242;10.408;2023-06-26T06:05:01;22.30;99.90
7000;DHT22;3540;53.242;10.408;2023-06-26T06:07:27;22.40;99.90
7000;DHT22;3540;53.242;10.408;2023-06-26T06:09:52;22.40;99.90
7000;DHT22;3540;53.242;10.408;2023-06-26T06:12:18;22.60;99.90
7000;DHT22;3540;53.242;10.408;2023-06-26T06:14:43;22.60;99.90
7000;DHT22;3540;53.242;10.408;2023-06-26T06:17:09;22.70;99.90
7000;DHT22;3540;53.242;10.408;2023-06-26T06:19:35;22.80;99.90
7000;DHT22;3540;53.242;10.408;2023-06-26T06:22:00;22.80;99.90
7000;DHT22;3540;53.242;10.408;2023-06-26T06:24:26;22.90;99.90
7000;DHT22;3540;53.242;10.408;2023-06-26T06:26:51;23.10;99.90
7000;DHT22;3540;53.242;10.408;2023-06-26T06:29:17;23.20;99.90
7000;DHT22;3540;53.242;10.408;2023-06-26T06:31:44;23.20;99.90
7000;DHT22;3540;53.242;10.408;2023-06-26T06:34:10;23.30;99.90
7000;DHT22;3540;53.242;10.408;2023-06-26T06:36:35;23.40;99.90
7000;DHT22;3540;53.242;10.408;2023-06-26T06:39:01;23.50;99.90
7000;DHT22;3540;53.242;10.408;2023-06-26T06:41:26;23.60;99.90
7000;DHT22;3540;53.242;10.408;2023-06-26T06:43:52;23.70;99.90
7000;DHT22;3540;53.242;10.408;2023-06-26T06:46:18;23.80;99.90
7000;DHT22;3540;53.242;10.408;2023-06-26T06:48:43;23.80;99.90
7000;DHT22;3540;53.242;10.408;2023-06-26T06:51:09;23.90;99.90
7000;DHT22;3540;53.242;10.408;2023-06-26T06:53:34;24.00;99.90
7000;DHT22;3540;53.242;10.408;2023-06-26T06:56:00;24.10;99.90
7000;DHT22;3540;53.242;10.408;2023-06-26T06:58:26;24.10;99.90
7000;DHT22;3540;53.242;10.408;2023-06-26T07:00:51;24.30;99.90
7000;DHT22;3540;53.242;10.408;2023-06-26T07:03:17;24.40;99.90
7000;DHT22;3540;53.242;10.408;2023-06-26T07:05:43;24.50;99.90
7000;DHT22;3540;53.242;10.408;2023-06-26T07:08:09;24.70;99.90
7000;DHT22;3540;53.242;10.408;2023-06-26T07:10:34;24.70;99.90
7000;DHT22;3540;53.242;10.408;2023-06-26T07:13:00;24.70;99.90
7000;DHT22;3540;53.242;10.408;2023-06-26T07:15:26;24.90;99.90
7000;DHT22;3540;53.242;10.408;2023-06-26T07:17:51;25.10;99.90
7000;DHT22;3540;53.242;10.408;2023-06-26T07:20:17;25.20;99.90
7000;DHT22;3540;53.242;10.408;2023-06-26T07:22:43;25.40;99.90
7000;DHT22;3540;53.242;10.408;2023-06-26T07:25:10;25.50;99.90
7000;DHT22;3540;53.242;10.408;2023-06-26T07:27:40;25.60;99.90
7000;DHT22;3540;53.242;10.408;2023-06-26T07:30:07;25.60;99.90
7000;DHT22;3540;53.242;10.408;2023-06-26T07:32:34;25.70;99.90
7000;DHT22;3540;53.242;10.408;2023-06-26T07:35:00;25.90;99.90
7000;DHT22;3540;53.242;10.408;2023-06-26T07:37:26;25.80;99.90
7000;DHT22;3540;53.242;10.408;2023-06-26T07:39:51;26.00;99.90
7000;DHT22;3540;53.242;10.408;2023-06-26T07:42:17;26.10;99.90
7000;DHT22;3540;53.242;10.408;2023-06-26T07:44:42;26.20;99.90
7000;DHT22;3540;53.242;10.408;2023-06-26T07:47:09;26.30;99.90
7000;DHT22;3540;53.242;10.408;2023-06-26T07:49:35;26.40;99.90
7000;DHT22;3540;53.242;10.408;2023-06-26T07:52:01;26.40;99.90
7000;DHT22;3540;53.242;10.408;2023-06-26T07:54:26;26.50;99.90
7000;DHT22;3540;53.242;10.408;2023-06-26T07:57:00;26.60;99.90
7000;DHT22;3540;53.242;10.408;2023-06-26T07:59:27;26.80;99.90
7000;DHT22;3540;53.242;10.408;2023-06-26T08:01:54;27.00;99.90
7000;DHT22;3540;53.242;10.408;2023-06-26T08:04:22;27.00;99.90
7000;DHT22;3540;53.242;10.408;2023-06-26T08:06:49;26.90;99.90
7000;DHT22;3540;53.242;10.408;2023-06-26T08:09:16;27.00;99.90
7000;DHT22;3540;53.242;10.408;2023-06-26T08:11:42;26.90;99.90
7000;DHT22;3540;53.242;10.408;2023-06-26T08:14:08;27.00;99.90
7000;DHT22;3540;53.242;10.408;2023-06-26T08:16:33;27.00;99.90
7000;DHT22;3540;53.242;10.408;2023-06-26T08:18:59;27.00;99.90
7000;DHT22;3540;53.242;10.408;2023-06-26T08:21:25;27.10;99.90
7000;DHT22;3540;53.242;10.408;2023-06-26T08:23:50;27.10;99.90
7000;DHT22;3540;53.242;10.408;2023-06-26T08:26:16;27.40;99.90
7000;DHT22;3540;53.242;10.408;2023-06-26T08:28:42;27.80;99.90
7000;DHT22;3540;53.242;10.408;2023-06-26T08:31:07;27.80;99.90
7000;DHT22;3540;53.242;10.408;2023-06-26T08:33:33;27.90;99.90
7000;DHT22;3540;53.242;10.408;2023-06-26T08:35:59;28.00;99.90
7000;DHT22;3540;53.242;10.408;2023-06-26T08:38:24;28.10;99.90
7000;DHT22;3540;53.242;10.408;2023-06-26T08:40:50;28.30;99.90
7000;DHT22;3540;53.242;10.408;2023-06-26T08:43:16;28.20;99.90
7000;DHT22;3540;53.242;10.408;2023-06-26T08:45:41;28.30;99.90
7000;DHT22;3540;53.242;10.408;2023-06-26T08:48:08;28.40;99.90
7000;DHT22;3540;53.242;10.408;2023-06-26T08:50:35;28.80;99.90
7000;DHT22;3540;53.242;10.408;2023-06-26T08:55:55;28.90;99.90
7000;DHT22;3540;53.242;10.408;2023-06-26T08:58:22;28.60;99.90
7000;DHT22;3540;53.242;10.408;2023-06-26T09:00:48;28.40;99.90
7000;DHT22;3540;53.242;10.408;2023-06-26T09:03:15;28.40;99.90
7000;DHT22;3540;53.242;10.408;2023-06-26T09:05:41;28.50;99.90
7000;DHT22;3540;53.242;10.408;2023-06-26T09:08:07;28.40;99.90
7000;DHT22;3540;53.242;10.408;2023-06-26T09:10:33;28.60;99.90
7000;DHT22;3540;53.242;10.408;2023-06-26T09:12:59;29.10;99.90
7000;DHT22;3540;53.242;10.408;2023-06-26T09:15:26;29.40;99.90
7000;DHT22;3540;53.242;10.408;2023-06-26T09:17:56;29.70;99.90
7000;DHT22;3540;53.242;10.408;2023-06-26T09:20:22;29.70;99.90
7000;DHT22;3540;53.242;10.408;2023-06-26T09:22:48;29.50;99.90
7000;DHT22;3540;53.242;10.408;2023-06-26T09:25:14;29.60;99.90
7000;DHT22;3540;53.242;10.408;2023-06-26T09:27:39;29.40;99.90
7000;DHT22;3540;53.242;10.408;2023-06-26T09:30:06;29.40;99.90
7000;DHT22;3540;53.242;10.408;2023-06-26T09:32:35;29.20;99.90
7000;DHT22;3540;53.242;10.408;2023-06-26T09:35:02;29.30;99.90
7000;DHT22;3540;53.242;10.408;2023-06-26T09:37:28;29.50;99.90
7000;DHT22;3540;53.242;10.408;2023-06-26T09:39:54;29.70;99.90
7000;DHT22;3540;53.242;10.408;2023-06-26T09:42:20;29.90;99.90
7000;DHT22;3540;53.242;10.408;2023-06-26T09:44:46;29.90;99.90
7000;DHT22;3540;53.242;10.408;2023-06-26T09:47:13;29.80;99.90
7000;DHT22;3540;53.242;10.408;2023-06-26T09:49:42;29.70;99.90
7000;DHT22;3540;53.242;10.408;2023-06-26T09:52:16;29.80;99.90
7000;DHT22;3540;53.242;10.408;2023-06-26T09:54:43;29.80;99.90
7000;DHT22;3540;53.242;10.408;2023-06-26T09:57:17;29.70;99.90
7000;DHT22;3540;53.242;10.408;2023-06-26T09:59:44;29.70;99.90
7000;DHT22;3540;53.242;10.408;2023-06-26T10:02:13;29.40;99.90
7000;DHT22;3540;53.242;10.408;2023-06-26T10:04:39;28.70;99.90
7000;DHT22;3540;53.242;10.408;2023-06-26T10:07:06;28.50;99.90
7000;DHT22;3540;53.242;10.408;2023-06-26T10:09:33;28.40;99.90
7000;DHT22;3540;53.242;10.408;2023-06-26T10:12:08;28.60;99.90
7000;DHT22;3540;53.242;10.408;2023-06-26T10:14:41;29.00;99.90
7000;DHT22;3540;53.242;10.408;2023-06-26T10:17:10;28.50;99.90
7000;DHT22;3540;53.242;10.408;2023-06-26T10:19:41;28.00;99.90
7000;DHT22;3540;53.242;10.408;2023-06-26T10:22:09;27.90;99.90
7000;DHT22;3540;53.242;10.408;2023-06-26T10:24:37;28.00;99.90
7000;DHT22;3540;53.242;10.408;2023-06-26T10:27:19;28.10;99.90
7000;DHT22;3540;53.242;10.408;2023-06-26T10:29:54;28.30;99.90
7000;DHT22;3540;53.242;10.408;2023-06-26T10:32:23;28.30;99.90
7000;DHT22;3540;53.242;10.408;2023-06-26T10:34:50;28.30;99.90
7000;DHT22;3540;53.242;10.408;2023-06-26T10:37:16;27.70;99.90
7000;DHT22;3540;53.242;10.408;2023-06-26T10:39:52;27.00;99.90
7000;DHT22;3540;53.242;10.408;2023-06-26T10:42:34;26.30;99.90
7000;DHT22;3540;53.242;10.408;2023-06-26T10:45:30;25.70;99.90
7000;DHT22;3540;53.242;10.408;2023-06-26T10:47:57;25.50;99.90
7000;DHT22;3540;53.242;10.408;2023-06-26T10:50:28;25.00;99.90
7000;DHT22;3540;53.242;10.408;2023-06-26T10:53:16;23.90;99.90
7000;DHT22;3540;53.242;10.408;2023-06-26T10:56:02;22.40;99.90
7000;DHT22;3540;53.242;10.408;2023-06-26T11:03:45;19.70;99.90
7000;DHT22;3540;53.242;10.408;2023-06-26T11:06:18;19.50;99.90
7000;DHT22;3540;53.242;10.408;2023-06-26T11:11:11;19.20;99.90
7000;DHT22;3540;53.242;10.408;2023-06-26T11:13:37;19.20;99.90
7000;DHT22;3540;53.242;10.408;2023-06-26T11:16:05;19.10;99.90
7000;DHT22;3540;53.242;10.408;2023-06-26T11:18:31;18.90;99.90
7000;DHT22;3540;53.242;10.408;2023-06-26T11:21:06;18.80;99.90
7000;DHT22;3540;53.242;10.408;2023-06-26T11:23:33;18.80;99.90
7000;DHT22;3540;53.242;10.408;2023-06-26T11:26:16;18.70;99.90
7000;DHT22;3540;53.242;10.408;2023-06-26T11:28:53;18.90;99.90
7000;DHT22;3540;53.242;10.408;2023-06-26T11:31:28;19.00;99.90
7000;DHT22;3540;53.242;10.408;2023-06-26T11:33:56;19.00;99.90
7000;DHT22;3540;53.242;10.408;2023-06-26T11:36:26;19.00;99.90
7000;DHT22;3540;53.242;10.408;2023-06-26T11:38:58;19.20;99.90
7000;DHT22;3540;53.242;10.408;2023-06-26T11:41:28;19.40;99.90
7000;DHT22;3540;53.242;10.408;2023-06-26T11:43:54;19.50;99.90
7000;DHT22;3540;53.242;10.408;2023-06-26T11:46:21;19.60;99.90
7000;DHT22;3540;53.242;10.408;2023-06-26T11:48:47;19.80;99.90
7000;DHT22;3540;53.242;10.408;2023-06-26T11:51:16;20.10;99.90
7000;DHT22;3540;53.242;10.408;2023-06-26T11:53:44;20.10;99.90
7000;DHT22;3540;53.242;10.408;2023-06-26T11:56:15;20.00;99.90
7000;DHT22;3540;53.242;10.408;2023-06-26T11:59:02;20.00;99.90
7000;DHT22;3540;53.242;10.408;2023-06-26T12:01:57;20.10;99.90
7000;DHT22;3540;53.242;10.408;2023-06-26T12:04:23;20.10;99.90
7000;DHT22;3540;53.242;10.408;2023-06-26T12:06:52;20.40;99.90
7000;DHT22;3540;53.242;10.408;2023-06-26T12:09:23;20.70;99.90
7000;DHT22;3540;53.242;10.408;2023-06-26T12:11:53;20.70;99.90
7000;DHT22;3540;53.242;10.408;2023-06-26T12:14:20;20.90;99.90
7000;DHT22;3540;53.242;10.408;2023-06-26T12:16:46;21.10;99.90
7000;DHT22;3540;53.242;10.408;2023-06-26T12:19:12;21.20;99.90
7000;DHT22;3540;53.242;10.408;2023-06-26T12:24:08;21.40;99.90
7000;DHT22;3540;53.242;10.408;2023-06-26T12:26:34;21.40;99.90
7000;DHT22;3540;53.242;10.408;2023-06-26T12:29:09;21.40;99.90
7000;DHT22;3540;53.242;10.408;2023-06-26T12:31:44;21.60;99.90
7000;DHT22;3540;53.242;10.408;2023-06-26T12:34:11;21.70;99.90
7000;DHT22;3540;53.242;10.408;2023-06-26T12:36:46;21.90;99.90
7000;DHT22;3540;53.242;10.408;2023-06-26T12:39:19;22.00;99.90
7000;DHT22;3540;53.242;10.408;2023-06-26T12:42:00;22.10;99.90
7000;DHT22;3540;53.242;10.408;2023-06-26T12:44:30;22.30;99.90
7000;DHT22;3540;53.242;10.408;2023-06-26T12:47:00;22.40;99.90
7000;DHT22;3540;53.242;10.408;2023-06-26T12:49:45;22.30;99.90
7000;DHT22;3540;53.242;10.408;2023-06-26T12:52:15;22.40;99.90
7000;DHT22;3540;53.242;10.408;2023-06-26T12:54:43;22.60;99.90
7000;DHT22;3540;53.242;10.408;2023-06-26T12:57:09;22.70;99.90
7000;DHT22;3540;53.242;10.408;2023-06-26T12:59:38;22.80;99.90
7000;DHT22;3540;53.242;10.408;2023-06-26T13:02:05;22.60;99.90
7000;DHT22;3540;53.242;10.408;2023-06-26T13:04:30;22.70;99.90
7000;DHT22;3540;53.242;10.408;2023-06-26T13:06:56;22.50;99.90
7000;DHT22;3540;53.242;10.408;2023-06-26T13:09:23;22.50;99.90
7000;DHT22;3540;53.242;10.408;2023-06-26T13:11:50;22.80;99.90
7000;DHT22;3540;53.242;10.408;2023-06-26T13:14:16;23.10;99.90
7000;DHT22;3540;53.242;10.408;2023-06-26T13:16:42;23.00;99.90
7000;DHT22;3540;53.242;10.408;2023-06-26T13:19:07;23.10;99.90
7000;DHT22;3540;53.242;10.408;2023-06-26T13:21:34;23.00;99.90
7000;DHT22;3540;53.242;10.408;2023-06-26T13:23:59;23.30;99.90
7000;DHT22;3540;53.242;10.408;2023-06-26T13:26:26;23.50;99.90
7000;DHT22;3540;53.242;10.408;2023-06-26T13:28:54;23.50;99.90
7000;DHT22;3540;53.242;10.408;2023-06-26T13:31:20;23.30;99.90
7000;DHT22;3540;53.242;10.408;2023-06-26T13:33:46;23.10;99.90
7000;DHT22;3540;53.242;10.408;2023-06-26T13:36:14;23.40;99.90
7000;DHT22;3540;53.242;10.408;2023-06-26T13:38:40;23.50;99.90
7000;DHT22;3540;53.242;10.408;2023-06-26T13:41:06;23.90;99.90
7000;DHT22;3540;53.242;10.408;2023-06-26T13:43:32;23.90;99.90
7000;DHT22;3540;53.242;10.408;2023-06-26T13:45:57;23.90;99.90
7000;DHT22;3540;53.242;10.408;2023-06-26T13:48:23;24.00;99.90
7000;DHT22;3540;53.242;10.408;2023-06-26T13:50:52;24.10;99.90
7000;DHT22;3540;53.242;10.408;2023-06-26T13:53:18;23.90;99.90
7000;DHT22;3540;53.242;10.408;2023-06-26T13:55:44;23.80;99.90
7000;DHT22;3540;53.242;10.408;2023-06-26T13:58:10;23.80;99.90
7000;DHT22;3540;53.242;10.408;2023-06-26T14:00:37;23.30;99.90
7000;DHT22;3540;53.242;10.408;2023-06-26T14:03:04;23.50;99.90
7000;DHT22;3540;53.242;10.408;2023-06-26T14:05:34;23.40;99.90
7000;DHT22;3540;53.242;10.408;2023-06-26T14:08:02;23.90;99.90
7000;DHT22;3540;53.242;10.408;2023-06-26T14:10:27;23.80;99.90
7000;DHT22;3540;53.242;10.408;2023-06-26T14:12:53;23.80;99.90
7000;DHT22;3540;53.242;10.408;2023-06-26T14:15:18;23.60;99.90
7000;DHT22;3540;53.242;10.408;2023-06-26T14:17:44;23.80;99.90
7000;DHT22;3540;53.242;10.408;2023-06-26T14:20:10;24.00;99.90
7000;DHT22;3540;53.242;10.408;2023-06-26T14:22:41;23.80;99.90
7000;DHT22;3540;53.242;10.408;2023-06-26T14:25:08;24.40;99.90
7000;DHT22;3540;53.242;10.408;2023-06-26T14:27:35;24.20;99.90
7000;DHT22;3540;53.242;10.408;2023-06-26T14:30:01;24.10;99.90
7000;DHT22;3540;53.242;10.408;2023-06-26T14:32:28;23.70;99.90
7000;DHT22;3540;53.242;10.408;2023-06-26T14:34:53;23.50;99.90
7000;DHT22;3540;53.242;10.408;2023-06-26T14:37:19;23.20;99.90
7000;DHT22;3540;53.242;10.408;2023-06-26T14:39:45;23.30;99.90
7000;DHT22;3540;53.242;10.408;2023-06-26T14:42:11;23.20;99.90
7000;DHT22;3540;53.242;10.408;2023-06-26T14:44:36;23.20;99.90
7000;DHT22;3540;53.242;10.408;2023-06-26T14:47:02;23.60;99.90
7000;DHT22;3540;53.242;10.408;2023-06-26T14:49:28;23.90;99.90
7000;DHT22;3540;53.242;10.408;2023-06-26T14:51:54;23.50;99.90
7000;DHT22;3540;53.242;10.408;2023-06-26T14:54:19;23.30;99.90
7000;DHT22;3540;53.242;10.408;2023-06-26T14:56:45;23.00;99.90
7000;DHT22;3540;53.242;10.408;2023-06-26T14:59:11;23.10;99.90
7000;DHT22;3540;53.242;10.408;2023-06-26T15:01:38;23.50;99.90
7000;DHT22;3540;53.242;10.408;2023-06-26T15:04:05;23.80;99.90
7000;DHT22;3540;53.242;10.408;2023-06-26T15:06:30;23.70;99.90
7000;DHT22;3540;53.242;10.408;2023-06-26T15:08:56;23.50;99.90
7000;DHT22;3540;53.242;10.408;2023-06-26T15:11:21;23.30;99.90
7000;DHT22;3540;53.242;10.408;2023-06-26T15:13:47;23.80;99.90
7000;DHT22;3540;53.242;10.408;2023-06-26T15:16:13;24.00;99.90
7000;DHT22;3540;53.242;10.408;2023-06-26T15:18:39;24.20;99.90
7000;DHT22;3540;53.242;10.408;2023-06-26T15:21:05;24.40;99.90
7000;DHT22;3540;53.242;10.408;2023-06-26T15:23:31;24.20;99.90
7000;DHT22;3540;53.242;10.408;2023-06-26T15:25:56;24.20;99.90
7000;DHT22;3540;53.242;10.408;2023-06-26T15:28:22;24.30;99.90
7000;DHT22;3540;53.242;10.408;2023-06-26T15:30:48;24.40;99.90
7000;DHT22;3540;53.242;10.408;2023-06-26T15:33:13;24.50;99.90
7000;DHT22;3540;53.242;10.408;2023-06-26T15:35:39;24.50;99.90
7000;DHT22;3540;53.242;10.408;2023-06-26T15:38:05;24.10;99.90
7000;DHT22;3540;53.242;10.408;2023-06-26T15:40:31;23.50;99.90
7000;DHT22;3540;53.242;10.408;2023-06-26T15:42:56;23.30;99.90
7000;DHT22;3540;53.242;10.408;2023-06-26T15:45:22;23.10;99.90
7000;DHT22;3540;53.242;10.408;2023-06-26T15:47:49;23.00;99.90
7000;DHT22;3540;53.242;10.408;2023-06-26T15:50:16;23.10;99.90
7000;DHT22;3540;53.242;10.408;2023-06-26T15:52:42;22.80;99.90
7000;DHT22;3540;53.242;10.408;2023-06-26T15:55:08;22.70;99.90
7000;DHT22;3540;53.242;10.408;2023-06-26T15:57:35;22.50;99.90
7000;DHT22;3540;53.242;10.408;2023-06-26T16:00:02;22.60;99.90